sensor_id;sensor_type;location;lat;lon;timestamp;P1;durP1;ratioP1;P2;durP2;ratioP2
15153;SDS011;7677;41.896;25.004;2023-12-20T00:02:22;1.70;;;1.27;;
15153;SDS011;7677;41.896;25.004;2023-12-20T00:04:49;1.40;;;1.20;;
15153;SDS011;7677;41.896;25.004;2023-12-20T00:07:17;1.63;;;1.07;;
15153;SDS011;7677;41.896;25.004;2023-12-20T00:09:44;1.00;;;1.00;;
15153;SDS011;7677;41.896;25.004;2023-12-20T00:12:11;1.50;;;1.00;;
15153;SDS011;7677;41.896;25.004;2023-12-20T00:14:38;1.63;;;1.07;;
15153;SDS011;7677;41.896;25.004;2023-12-20T00:17:07;1.07;;;1.00;;
15153;SDS011;7677;41.896;25.004;2023-12-20T00:19:34;0.90;;;0.90;;
15153;SDS011;7677;41.896;25.004;2023-12-20T00:22:01;1.20;;;1.10;;
15153;SDS011;7677;41.896;25.004;2023-12-20T00:24:29;0.80;;;0.80;;
15153;SDS011;7677;41.896;25.004;2023-12-20T00:26:56;1.20;;;1.10;;
15153;SDS011;7677;41.896;25.004;2023-12-20T00:29:23;0.90;;;0.90;;
15153;SDS011;7677;41.896;25.004;2023-12-20T00:31:50;1.00;;;1.00;;
15153;SDS011;7677;41.896;25.004;2023-12-20T00:34:19;1.00;;;1.00;;
15153;SDS011;7677;41.896;25.004;2023-12-20T00:36:46;0.80;;;0.80;;
15153;SDS011;7677;41.896;25.004;2023-12-20T00:39:13;0.80;;;0.80;;
15153;SDS011;7677;41.896;25.004;2023-12-20T00:41:40;1.40;;;1.30;;
15153;SDS011;7677;41.896;25.004;2023-12-20T00:44:08;1.37;;;1.30;;
15153;SDS011;7677;41.896;25.004;2023-12-20T00:46:35;1.03;;;1.00;;
15153;SDS011;7677;41.896;25.004;2023-12-20T00:49:02;1.20;;;1.10;;
15153;SDS011;7677;41.896;25.004;2023-12-20T00:51:31;1.30;;;1.17;;
15153;SDS011;7677;41.896;25.004;2023-12-20T00:53:58;1.17;;;1.10;;
15153;SDS011;7677;41.896;25.004;2023-12-20T00:56:25;0.93;;;0.93;;
15153;SDS011;7677;41.896;25.004;2023-12-20T00:58:53;1.63;;;1.30;;
15153;SDS011;7677;41.896;25.004;2023-12-20T01:01:20;1.20;;;1.10;;
15153;SDS011;7677;41.896;25.004;2023-12-20T01:03:48;1.10;;;1.10;;
15153;SDS011;7677;41.896;25.004;2023-12-20T01:06:16;1.00;;;1.00;;
15153;SDS011;7677;41.896;25.004;2023-12-20T01:08:45;0.90;;;0.90;;
15153;SDS011;7677;41.896;25.004;2023-12-20T01:11:12;1.13;;;1.13;;
15153;SDS011;7677;41.896;25.004;2023-12-20T01:13:39;1.03;;;1.00;;
15153;SDS011;7677;41.896;25.004;2023-12-20T01:16:06;1.80;;;1.30;;
15153;SDS011;7677;41.896;25.004;2023-12-20T01:18:37;0.93;;;0.93;;
15153;SDS011;7677;41.896;25.004;2023-12-20T01:21:04;1.80;;;1.10;;
15153;SDS011;7677;41.896;25.004;2023-12-20T01:23:31;3.20;;;1.30;;
15153;SDS011;7677;41.896;25.004;2023-12-20T01:26:00;1.33;;;1.23;;
15153;SDS011;7677;41.896;25.004;2023-12-20T01:28:28;1.00;;;1.00;;
15153;SDS011;7677;41.896;25.004;2023-12-20T01:30:55;1.10;;;1.00;;
15153;SDS011;7677;41.896;25.004;2023-12-20T01:33:22;1.00;;;1.00;;
15153;SDS011;7677;41.896;25.004;2023-12-20T01:35:49;1.30;;;1.20;;
15153;SDS011;7677;41.896;25.004;2023-12-20T01:38:16;1.03;;;0.97;;
15153;SDS011;7677;41.896;25.004;2023-12-20T01:40:45;1.13;;;1.13;;
15153;SDS011;7677;41.896;25.004;2023-12-20T01:43:14;1.20;;;1.10;;
15153;SDS011;7677;41.896;25.004;2023-12-20T01:45:41;0.97;;;0.90;;
15153;SDS011;7677;41.896;25.004;2023-12-20T01:48:08;1.00;;;1.00;;
15153;SDS011;7677;41.896;25.004;2023-12-20T01:50:36;0.93;;;0.93;;
15153;SDS011;7677;41.896;25.004;2023-12-20T01:53:03;1.10;;;1.00;;
15153;SDS011;7677;41.896;25.004;2023-12-20T01:55:31;1.10;;;1.10;;
15153;SDS011;7677;41.896;25.004;2023-12-20T01:57:59;1.20;;;1.10;;
15153;SDS011;7677;41.896;25.004;2023-12-20T02:00:29;1.17;;;1.10;;
15153;SDS011;7677;41.896;25.004;2023-12-20T02:02:56;0.97;;;0.97;;
15153;SDS011;7677;41.896;25.004;2023-12-20T02:05:27;1.23;;;1.13;;
15153;SDS011;7677;41.896;25.004;2023-12-20T02:07:55;1.40;;;1.30;;
15153;SDS011;7677;41.896;25.004;2023-12-20T02:10:22;1.10;;;1.10;;
15153;SDS011;7677;41.896;25.004;2023-12-20T02:12:50;1.60;;;1.50;;
15153;SDS011;7677;41.896;25.004;2023-12-20T02:15:17;1.50;;;1.40;;
15153;SDS011;7677;41.896;25.004;2023-12-20T02:17:46;1.10;;;1.10;;
15153;SDS011;7677;41.896;25.004;2023-12-20T02:20:13;1.17;;;1.10;;
15153;SDS011;7677;41.896;25.004;2023-12-20T02:22:42;1.63;;;1.40;;
15153;SDS011;7677;41.896;25.004;2023-12-20T02:25:09;1.20;;;1.10;;
15153;SDS011;7677;41.896;25.004;2023-12-20T02:27:36;0.90;;;0.90;;
15153;SDS011;7677;41.896;25.004;2023-12-20T02:30:04;1.40;;;1.30;;
15153;SDS011;7677;41.896;25.004;2023-12-20T02:32:32;1.40;;;1.27;;
15153;SDS011;7677;41.896;25.004;2023-12-20T02:35:00;1.10;;;1.10;;
15153;SDS011;7677;41.896;25.004;2023-12-20T02:37:27;1.60;;;1.10;;
15153;SDS011;7677;41.896;25.004;2023-12-20T02:39:55;0.90;;;0.90;;
15153;SDS011;7677;41.896;25.004;2023-12-20T02:42:23;1.60;;;1.50;;
15153;SDS011;7677;41.896;25.004;2023-12-20T02:44:50;1.07;;;1.07;;
15153;SDS011;7677;41.896;25.004;2023-12-20T02:47:17;0.83;;;0.83;;
15153;SDS011;7677;41.896;25.004;2023-12-20T02:49:44;1.00;;;1.00;;
15153;SDS011;7677;41.896;25.004;2023-12-20T02:52:11;1.20;;;1.00;;
15153;SDS011;7677;41.896;25.004;2023-12-20T02:54:38;1.77;;;1.40;;
15153;SDS011;7677;41.896;25.004;2023-12-20T02:57:07;1.40;;;1.30;;
15153;SDS011;7677;41.896;25.004;2023-12-20T02:59:34;2.03;;;1.60;;
15153;SDS011;7677;41.896;25.004;2023-12-20T03:02:01;1.90;;;1.80;;
15153;SDS011;7677;41.896;25.004;2023-12-20T03:04:29;1.43;;;1.33;;
15153;SDS011;7677;41.896;25.004;2023-12-20T03:06:56;1.40;;;1.20;;
15153;SDS011;7677;41.896;25.004;2023-12-20T03:09:23;1.40;;;1.30;;
15153;SDS011;7677;41.896;25.004;2023-12-20T03:11:50;1.47;;;1.10;;
15153;SDS011;7677;41.896;25.004;2023-12-20T03:14:19;1.40;;;1.30;;
15153;SDS011;7677;41.896;25.004;2023-12-20T03:16:46;1.23;;;1.03;;
15153;SDS011;7677;41.896;25.004;2023-12-20T03:19:14;1.20;;;1.20;;
15153;SDS011;7677;41.896;25.004;2023-12-20T03:21:41;1.00;;;1.00;;
15153;SDS011;7677;41.896;25.004;2023-12-20T03:24:09;1.50;;;1.13;;
15153;SDS011;7677;41.896;25.004;2023-12-20T03:26:36;1.30;;;0.97;;
15153;SDS011;7677;41.896;25.004;2023-12-20T03:29:03;1.03;;;1.03;;
15153;SDS011;7677;41.896;25.004;2023-12-20T03:31:32;0.90;;;0.90;;
15153;SDS011;7677;41.896;25.004;2023-12-20T03:33:59;1.60;;;1.50;;
15153;SDS011;7677;41.896;25.004;2023-12-20T03:36:26;1.27;;;1.17;;
15153;SDS011;7677;41.896;25.004;2023-12-20T03:38:53;1.30;;;1.20;;
15153;SDS011;7677;41.896;25.004;2023-12-20T03:41:20;1.60;;;1.50;;
15153;SDS011;7677;41.896;25.004;2023-12-20T03:43:47;0.93;;;0.90;;
15153;SDS011;7677;41.896;25.004;2023-12-20T03:46:15;1.50;;;1.40;;
15153;SDS011;7677;41.896;25.004;2023-12-20T03:48:43;1.13;;;1.13;;
15153;SDS011;7677;41.896;25.004;2023-12-20T03:51:10;1.20;;;1.10;;
15153;SDS011;7677;41.896;25.004;2023-12-20T03:53:38;2.53;;;1.40;;
15153;SDS011;7677;41.896;25.004;2023-12-20T03:56:06;1.03;;;1.00;;
15153;SDS011;7677;41.896;25.004;2023-12-20T03:58:33;1.00;;;1.00;;
15153;SDS011;7677;41.896;25.004;2023-12-20T04:01:00;1.50;;;1.10;;
15153;SDS011;7677;41.896;25.004;2023-12-20T04:03:27;1.30;;;1.03;;
15153;SDS011;7677;41.896;25.004;2023-12-20T04:05:56;1.00;;;1.00;;
15153;SDS011;7677;41.896;25.004;2023-12-20T04:08:23;1.10;;;1.10;;
15153;SDS011;7677;41.896;25.004;2023-12-20T04:10:51;1.00;;;1.00;;
15153;SDS011;7677;41.896;25.004;2023-12-20T04:13:18;3.13;;;1.20;;
15153;SDS011;7677;41.896;25.004;2023-12-20T04:15:45;1.80;;;1.20;;
15153;SDS011;7677;41.896;25.004;2023-12-20T04:18:13;0.70;;;0.70;;
15153;SDS011;7677;41.896;25.004;2023-12-20T04:20:40;1.90;;;1.10;;
15153;SDS011;7677;41.896;25.004;2023-12-20T04:23:09;0.80;;;0.80;;
15153;SDS011;7677;41.896;25.004;2023-12-20T04:25:36;1.13;;;1.03;;
15153;SDS011;7677;41.896;25.004;2023-12-20T04:28:03;1.00;;;1.00;;
15153;SDS011;7677;41.896;25.004;2023-12-20T04:30:31;1.33;;;1.00;;
15153;SDS011;7677;41.896;25.004;2023-12-20T04:32:58;2.13;;;0.97;;
15153;SDS011;7677;41.896;25.004;2023-12-20T04:35:25;1.00;;;1.00;;
15153;SDS011;7677;41.896;25.004;2023-12-20T04:37:52;2.00;;;1.20;;
15153;SDS011;7677;41.896;25.004;2023-12-20T04:40:21;1.10;;;1.00;;
15153;SDS011;7677;41.896;25.004;2023-12-20T04:42:48;0.90;;;0.90;;
15153;SDS011;7677;41.896;25.004;2023-12-20T04:45:15;0.90;;;0.90;;
15153;SDS011;7677;41.896;25.004;2023-12-20T04:47:44;1.17;;;1.07;;
15153;SDS011;7677;41.896;25.004;2023-12-20T04:50:12;0.90;;;0.90;;
15153;SDS011;7677;41.896;25.004;2023-12-20T04:52:40;3.63;;;1.50;;
15153;SDS011;7677;41.896;25.004;2023-12-20T04:55:07;1.63;;;1.00;;
15153;SDS011;7677;41.896;25.004;2023-12-20T04:57:36;0.90;;;0.90;;
15153;SDS011;7677;41.896;25.004;2023-12-20T05:00:04;1.13;;;1.13;;
15153;SDS011;7677;41.896;25.004;2023-12-20T05:02:33;1.10;;;1.10;;
15153;SDS011;7677;41.896;25.004;2023-12-20T05:05:00;0.87;;;0.87;;
15153;SDS011;7677;41.896;25.004;2023-12-20T05:07:28;1.57;;;1.20;;
15153;SDS011;7677;41.896;25.004;2023-12-20T05:09:55;0.80;;;0.80;;
15153;SDS011;7677;41.896;25.004;2023-12-20T05:12:22;0.90;;;0.90;;
15153;SDS011;7677;41.896;25.004;2023-12-20T05:14:51;1.40;;;1.07;;
15153;SDS011;7677;41.896;25.004;2023-12-20T05:17:18;1.00;;;1.00;;
15153;SDS011;7677;41.896;25.004;2023-12-20T05:19:46;0.90;;;0.90;;
15153;SDS011;7677;41.896;25.004;2023-12-20T05:22:13;1.20;;;1.20;;
15153;SDS011;7677;41.896;25.004;2023-12-20T05:24:40;0.90;;;0.90;;
15153;SDS011;7677;41.896;25.004;2023-12-20T05:27:08;1.33;;;1.23;;
15153;SDS011;7677;41.896;25.004;2023-12-20T05:29:35;0.80;;;0.80;;
15153;SDS011;7677;41.896;25.004;2023-12-20T05:32:04;1.00;;;1.00;;
15153;SDS011;7677;41.896;25.004;2023-12-20T05:34:31;1.17;;;1.10;;
15153;SDS011;7677;41.896;25.004;2023-12-20T05:36:59;1.00;;;1.00;;
15153;SDS011;7677;41.896;25.004;2023-12-20T05:39:27;0.90;;;0.90;;
15153;SDS011;7677;41.896;25.004;2023-12-20T05:41:54;0.80;;;0.80;;
15153;SDS011;7677;41.896;25.004;2023-12-20T05:44:21;1.10;;;1.00;;
15153;SDS011;7677;41.896;25.004;2023-12-20T05:46:48;5.20;;;4.20;;
15153;SDS011;7677;41.896;25.004;2023-12-20T05:49:17;2.60;;;2.27;;
15153;SDS011;7677;41.896;25.004;2023-12-20T05:51:44;0.97;;;0.97;;
15153;SDS011;7677;41.896;25.004;2023-12-20T05:54:11;0.80;;;0.80;;
15153;SDS011;7677;41.896;25.004;2023-12-20T05:56:38;1.00;;;1.00;;
15153;SDS011;7677;41.896;25.004;2023-12-20T05:59:06;0.97;;;0.93;;
15153;SDS011;7677;41.896;25.004;2023-12-20T06:01:33;1.13;;;1.00;;
15153;SDS011;7677;41.896;25.004;2023-12-20T06:04:00;0.83;;;0.83;;
15153;SDS011;7677;41.896;25.004;2023-12-20T06:06:30;1.03;;;1.03;;
15153;SDS011;7677;41.896;25.004;2023-12-20T06:08:57;0.93;;;0.93;;
15153;SDS011;7677;41.896;25.004;2023-12-20T06:11:24;1.00;;;1.00;;
15153;SDS011;7677;41.896;25.004;2023-12-20T06:13:52;1.13;;;1.03;;
15153;SDS011;7677;41.896;25.004;2023-12-20T06:16:19;1.10;;;1.00;;
15153;SDS011;7677;41.896;25.004;2023-12-20T06:18:47;1.10;;;1.10;;
15153;SDS011;7677;41.896;25.004;2023-12-20T06:21:14;3.00;;;2.80;;
15153;SDS011;7677;41.896;25.004;2023-12-20T06:23:43;3.33;;;2.80;;
15153;SDS011;7677;41.896;25.004;2023-12-20T06:26:10;1.80;;;1.70;;
15153;SDS011;7677;41.896;25.004;2023-12-20T06:28:37;1.20;;;1.10;;
15153;SDS011;7677;41.896;25.004;2023-12-20T06:31:04;1.20;;;1.10;;
15153;SDS011;7677;41.896;25.004;2023-12-20T06:33:32;1.10;;;1.10;;
15153;SDS011;7677;41.896;25.004;2023-12-20T06:35:59;1.00;;;1.00;;
15153;SDS011;7677;41.896;25.004;2023-12-20T06:38:26;1.00;;;1.00;;
15153;SDS011;7677;41.896;25.004;2023-12-20T06:40:55;1.40;;;1.30;;
15153;SDS011;7677;41.896;25.004;2023-12-20T06:43:23;1.13;;;1.00;;
15153;SDS011;7677;41.896;25.004;2023-12-20T06:45:51;1.20;;;1.10;;
15153;SDS011;7677;41.896;25.004;2023-12-20T06:48:18;1.20;;;1.20;;
15153;SDS011;7677;41.896;25.004;2023-12-20T06:50:46;1.33;;;1.00;;
15153;SDS011;7677;41.896;25.004;2023-12-20T06:53:13;1.13;;;1.03;;
15153;SDS011;7677;41.896;25.004;2023-12-20T06:55:40;2.87;;;1.20;;
15153;SDS011;7677;41.896;25.004;2023-12-20T06:58:09;1.20;;;1.10;;
15153;SDS011;7677;41.896;25.004;2023-12-20T07:00:36;1.57;;;1.20;;
15153;SDS011;7677;41.896;25.004;2023-12-20T07:03:03;1.07;;;1.00;;
15153;SDS011;7677;41.896;25.004;2023-12-20T07:05:31;1.43;;;1.33;;
15153;SDS011;7677;41.896;25.004;2023-12-20T07:07:58;1.17;;;1.00;;
15153;SDS011;7677;41.896;25.004;2023-12-20T07:10:25;1.13;;;1.03;;
15153;SDS011;7677;41.896;25.004;2023-12-20T07:12:52;1.57;;;1.20;;
15153;SDS011;7677;41.896;25.004;2023-12-20T07:15:21;0.80;;;0.80;;
15153;SDS011;7677;41.896;25.004;2023-12-20T07:17:49;1.53;;;1.27;;
15153;SDS011;7677;41.896;25.004;2023-12-20T07:20:16;1.20;;;1.00;;
15153;SDS011;7677;41.896;25.004;2023-12-20T07:22:43;1.33;;;1.23;;
15153;SDS011;7677;41.896;25.004;2023-12-20T07:25:10;1.30;;;1.20;;
15153;SDS011;7677;41.896;25.004;2023-12-20T07:27:38;5.73;;;2.80;;
15153;SDS011;7677;41.896;25.004;2023-12-20T07:30:06;38.60;;;25.10;;
15153;SDS011;7677;41.896;25.004;2023-12-20T07:32:35;65.97;;;43.87;;
15153;SDS011;7677;41.896;25.004;2023-12-20T07:35:03;57.90;;;40.73;;
15153;SDS011;7677;41.896;25.004;2023-12-20T07:37:30;40.33;;;28.63;;
15153;SDS011;7677;41.896;25.004;2023-12-20T07:39:58;13.80;;;11.20;;
15153;SDS011;7677;41.896;25.004;2023-12-20T07:42:25;14.37;;;12.80;;
15153;SDS011;7677;41.896;25.004;2023-12-20T07:44:52;14.97;;;13.37;;
15153;SDS011;7677;41.896;25.004;2023-12-20T07:47:20;6.57;;;5.97;;
15153;SDS011;7677;41.896;25.004;2023-12-20T07:49:49;4.20;;;2.67;;
15153;SDS011;7677;41.896;25.004;2023-12-20T07:52:17;2.77;;;2.47;;
15153;SDS011;7677;41.896;25.004;2023-12-20T07:54:44;2.13;;;1.93;;
15153;SDS011;7677;41.896;25.004;2023-12-20T07:57:12;3.23;;;2.40;;
15153;SDS011;7677;41.896;25.004;2023-12-20T07:59:39;4.93;;;3.43;;
15153;SDS011;7677;41.896;25.004;2023-12-20T08:02:06;4.10;;;2.37;;
15153;SDS011;7677;41.896;25.004;2023-12-20T08:04:33;2.80;;;2.50;;
15153;SDS011;7677;41.896;25.004;2023-12-20T08:07:02;3.13;;;2.10;;
15153;SDS011;7677;41.896;25.004;2023-12-20T08:09:30;3.00;;;2.70;;
15153;SDS011;7677;41.896;25.004;2023-12-20T08:11:59;3.70;;;2.70;;
15153;SDS011;7677;41.896;25.004;2023-12-20T08:14:26;4.67;;;2.93;;
15153;SDS011;7677;41.896;25.004;2023-12-20T08:16:53;3.10;;;2.60;;
15153;SDS011;7677;41.896;25.004;2023-12-20T08:19:20;2.23;;;1.87;;
15153;SDS011;7677;41.896;25.004;2023-12-20T08:21:47;2.90;;;1.90;;
15153;SDS011;7677;41.896;25.004;2023-12-20T08:24:16;4.53;;;2.93;;
15153;SDS011;7677;41.896;25.004;2023-12-20T08:26:43;3.30;;;2.03;;
15153;SDS011;7677;41.896;25.004;2023-12-20T08:29:12;1.77;;;1.60;;
15153;SDS011;7677;41.896;25.004;2023-12-20T08:31:39;9.53;;;2.00;;
15153;SDS011;7677;41.896;25.004;2023-12-20T08:34:07;2.83;;;2.03;;
15153;SDS011;7677;41.896;25.004;2023-12-20T08:36:34;3.43;;;2.40;;
15153;SDS011;7677;41.896;25.004;2023-12-20T08:39:01;5.73;;;3.77;;
15153;SDS011;7677;41.896;25.004;2023-12-20T08:41:33;14.43;;;6.73;;
15153;SDS011;7677;41.896;25.004;2023-12-20T08:44:00;36.20;;;14.20;;
15153;SDS011;7677;41.896;25.004;2023-12-20T08:46:27;58.83;;;26.47;;
15153;SDS011;7677;41.896;25.004;2023-12-20T08:48:54;107.70;;;44.70;;
15153;SDS011;7677;41.896;25.004;2023-12-20T08:51:21;14.87;;;7.03;;
15153;SDS011;7677;41.896;25.004;2023-12-20T08:53:50;10.70;;;5.47;;
15153;SDS011;7677;41.896;25.004;2023-12-20T08:56:18;6.47;;;4.80;;
15153;SDS011;7677;41.896;25.004;2023-12-20T08:58:46;6.33;;;5.20;;
15153;SDS011;7677;41.896;25.004;2023-12-20T09:01:14;6.83;;;5.10;;
15153;SDS011;7677;41.896;25.004;2023-12-20T09:03:41;8.23;;;5.90;;
15153;SDS011;7677;41.896;25.004;2023-12-20T09:06:09;7.47;;;6.17;;
15153;SDS011;7677;41.896;25.004;2023-12-20T09:08:37;8.53;;;6.00;;
15153;SDS011;7677;41.896;25.004;2023-12-20T09:11:05;7.17;;;5.93;;
15153;SDS011;7677;41.896;25.004;2023-12-20T09:13:32;8.73;;;7.10;;
15153;SDS011;7677;41.896;25.004;2023-12-20T09:16:01;6.73;;;5.53;;
15153;SDS011;7677;41.896;25.004;2023-12-20T09:18:29;7.83;;;6.03;;
15153;SDS011;7677;41.896;25.004;2023-12-20T09:20:56;6.93;;;4.90;;
15153;SDS011;7677;41.896;25.004;2023-12-20T09:23:23;8.63;;;5.87;;
15153;SDS011;7677;41.896;25.004;2023-12-20T09:25:50;8.30;;;6.60;;
15153;SDS011;7677;41.896;25.004;2023-12-20T09:28:18;10.97;;;8.60;;
15153;SDS011;7677;41.896;25.004;2023-12-20T09:30:46;14.00;;;9.57;;
15153;SDS011;7677;41.896;25.004;2023-12-20T09:33:14;15.70;;;9.57;;
15153;SDS011;7677;41.896;25.004;2023-12-20T09:35:42;19.23;;;12.13;;
15153;SDS011;7677;41.896;25.004;2023-12-20T09:38:09;36.60;;;21.90;;
15153;SDS011;7677;41.896;25.004;2023-12-20T09:40:38;28.03;;;18.73;;
15153;SDS011;7677;41.896;25.004;2023-12-20T09:43:08;14.20;;;9.13;;
15153;SDS011;7677;41.896;25.004;2023-12-20T09:45:38;12.43;;;8.37;;
15153;SDS011;7677;41.896;25.004;2023-12-20T09:48:06;9.17;;;7.57;;
15153;SDS011;7677;41.896;25.004;2023-12-20T09:50:35;10.17;;;7.40;;
15153;SDS011;7677;41.896;25.004;2023-12-20T09:55:58;8.27;;;6.47;;
15153;SDS011;7677;41.896;25.004;2023-12-20T09:58:26;8.93;;;5.73;;
15153;SDS011;7677;41.896;25.004;2023-12-20T10:00:54;10.37;;;6.13;;
15153;SDS011;7677;41.896;25.004;2023-12-20T10:03:23;9.87;;;5.80;;
15153;SDS011;7677;41.896;25.004;2023-12-20T10:05:52;10.00;;;6.27;;
15153;SDS011;7677;41.896;25.004;2023-12-20T10:08:21;7.97;;;5.67;;
15153;SDS011;7677;41.896;25.004;2023-12-20T10:10:48;10.27;;;6.00;;
15153;SDS011;7677;41.896;25.004;2023-12-20T10:13:17;7.67;;;6.13;;
15153;SDS011;7677;41.896;25.004;2023-12-20T10:15:44;7.03;;;5.83;;
15153;SDS011;7677;41.896;25.004;2023-12-20T10:18:12;7.33;;;5.67;;
15153;SDS011;7677;41.896;25.004;2023-12-20T10:20:40;9.23;;;6.67;;
15153;SDS011;7677;41.896;25.004;2023-12-20T10:23:08;7.50;;;6.50;;
15153;SDS011;7677;41.896;25.004;2023-12-20T10:25:35;9.30;;;6.57;;
15153;SDS011;7677;41.896;25.004;2023-12-20T10:28:09;11.37;;;8.30;;
15153;SDS011;7677;41.896;25.004;2023-12-20T10:30:39;8.87;;;6.70;;
15153;SDS011;7677;41.896;25.004;2023-12-20T10:33:06;10.67;;;7.83;;
15153;SDS011;7677;41.896;25.004;2023-12-20T10:35:34;11.00;;;7.53;;
15153;SDS011;7677;41.896;25.004;2023-12-20T10:38:02;9.27;;;7.13;;
15153;SDS011;7677;41.896;25.004;2023-12-20T10:40:31;11.03;;;6.23;;
15153;SDS011;7677;41.896;25.004;2023-12-20T10:43:01;8.87;;;6.63;;
15153;SDS011;7677;41.896;25.004;2023-12-20T10:45:30;11.53;;;7.10;;
15153;SDS011;7677;41.896;25.004;2023-12-20T10:47:59;8.17;;;6.77;;
15153;SDS011;7677;41.896;25.004;2023-12-20T10:50:26;8.30;;;6.07;;
15153;SDS011;7677;41.896;25.004;2023-12-20T10:52:55;8.00;;;6.53;;
15153;SDS011;7677;41.896;25.004;2023-12-20T10:55:22;8.23;;;5.87;;
15153;SDS011;7677;41.896;25.004;2023-12-20T10:57:50;7.20;;;5.67;;
15153;SDS011;7677;41.896;25.004;2023-12-20T11:00:18;8.23;;;5.87;;
15153;SDS011;7677;41.896;25.004;2023-12-20T11:02:45;13.13;;;7.87;;
15153;SDS011;7677;41.896;25.004;2023-12-20T11:05:18;10.17;;;7.63;;
15153;SDS011;7677;41.896;25.004;2023-12-20T11:07:51;12.07;;;8.70;;
15153;SDS011;7677;41.896;25.004;2023-12-20T11:10:24;13.30;;;9.13;;
15153;SDS011;7677;41.896;25.004;2023-12-20T11:12:53;15.37;;;10.17;;
15153;SDS011;7677;41.896;25.004;2023-12-20T11:15:29;11.90;;;8.40;;
15153;SDS011;7677;41.896;25.004;2023-12-20T11:17:57;14.73;;;9.43;;
15153;SDS011;7677;41.896;25.004;2023-12-20T11:20:34;14.07;;;10.10;;
15153;SDS011;7677;41.896;25.004;2023-12-20T11:23:03;19.03;;;12.80;;
15153;SDS011;7677;41.896;25.004;2023-12-20T11:25:35;18.33;;;13.63;;
15153;SDS011;7677;41.896;25.004;2023-12-20T11:28:13;14.20;;;10.80;;
15153;SDS011;7677;41.896;25.004;2023-12-20T11:30:41;19.07;;;13.27;;
15153;SDS011;7677;41.896;25.004;2023-12-20T11:33:08;16.00;;;11.40;;
15153;SDS011;7677;41.896;25.004;2023-12-20T11:35:37;14.80;;;10.53;;
15153;SDS011;7677;41.896;25.004;2023-12-20T11:38:07;10.53;;;8.73;;
15153;SDS011;7677;41.896;25.004;2023-12-20T11:40:35;13.03;;;9.03;;
15153;SDS011;7677;41.896;25.004;2023-12-20T11:43:03;10.27;;;8.10;;
15153;SDS011;7677;41.896;25.004;2023-12-20T11:45:30;10.60;;;7.83;;
15153;SDS011;7677;41.896;25.004;2023-12-20T11:47:58;10.83;;;8.57;;
15153;SDS011;7677;41.896;25.004;2023-12-20T11:50:25;10.77;;;8.43;;
15153;SDS011;7677;41.896;25.004;2023-12-20T11:52:55;9.53;;;7.77;;
15153;SDS011;7677;41.896;25.004;2023-12-20T11:55:22;11.10;;;6.80;;
15153;SDS011;7677;41.896;25.004;2023-12-20T11:57:50;11.00;;;7.53;;
15153;SDS011;7677;41.896;25.004;2023-12-20T12:00:18;16.83;;;8.27;;
15153;SDS011;7677;41.896;25.004;2023-12-20T12:02:54;15.90;;;9.17;;
15153;SDS011;7677;41.896;25.004;2023-12-20T12:05:23;12.47;;;10.03;;
15153;SDS011;7677;41.896;25.004;2023-12-20T12:07:50;19.10;;;12.53;;
15153;SDS011;7677;41.896;25.004;2023-12-20T12:10:19;17.80;;;13.63;;
15153;SDS011;7677;41.896;25.004;2023-12-20T12:12:46;14.87;;;11.27;;
15153;SDS011;7677;41.896;25.004;2023-12-20T12:15:14;11.97;;;8.93;;
15153;SDS011;7677;41.896;25.004;2023-12-20T12:17:41;13.20;;;10.23;;
15153;SDS011;7677;41.896;25.004;2023-12-20T12:20:09;10.37;;;7.87;;
15153;SDS011;7677;41.896;25.004;2023-12-20T12:22:37;10.80;;;8.10;;
15153;SDS011;7677;41.896;25.004;2023-12-20T12:25:13;11.37;;;8.37;;
15153;SDS011;7677;41.896;25.004;2023-12-20T12:27:43;13.30;;;9.23;;
15153;SDS011;7677;41.896;25.004;2023-12-20T12:30:10;16.97;;;9.27;;
15153;SDS011;7677;41.896;25.004;2023-12-20T12:32:38;14.90;;;11.33;;
15153;SDS011;7677;41.896;25.004;2023-12-20T12:35:07;12.43;;;9.57;;
15153;SDS011;7677;41.896;25.004;2023-12-20T12:37:35;9.40;;;7.37;;
15153;SDS011;7677;41.896;25.004;2023-12-20T12:40:04;12.07;;;8.23;;
15153;SDS011;7677;41.896;25.004;2023-12-20T12:42:31;10.67;;;8.03;;
15153;SDS011;7677;41.896;25.004;2023-12-20T12:45:00;11.20;;;7.97;;
15153;SDS011;7677;41.896;25.004;2023-12-20T12:47:27;11.13;;;6.90;;
15153;SDS011;7677;41.896;25.004;2023-12-20T12:49:55;14.97;;;8.33;;
15153;SDS011;7677;41.896;25.004;2023-12-20T12:52:22;12.77;;;8.03;;
15153;SDS011;7677;41.896;25.004;2023-12-20T12:54:49;11.60;;;7.63;;
15153;SDS011;7677;41.896;25.004;2023-12-20T12:57:16;11.43;;;7.67;;
15153;SDS011;7677;41.896;25.004;2023-12-20T12:59:44;13.83;;;9.13;;
15153;SDS011;7677;41.896;25.004;2023-12-20T13:02:13;12.00;;;9.73;;
15153;SDS011;7677;41.896;25.004;2023-12-20T13:04:41;20.77;;;15.73;;
15153;SDS011;7677;41.896;25.004;2023-12-20T13:07:08;13.47;;;9.97;;
15153;SDS011;7677;41.896;25.004;2023-12-20T13:09:37;13.40;;;8.23;;
15153;SDS011;7677;41.896;25.004;2023-12-20T13:12:04;12.20;;;8.87;;
15153;SDS011;7677;41.896;25.004;2023-12-20T13:14:33;10.20;;;7.23;;
15153;SDS011;7677;41.896;25.004;2023-12-20T13:17:02;8.90;;;6.67;;
15153;SDS011;7677;41.896;25.004;2023-12-20T13:19:31;11.90;;;8.27;;
15153;SDS011;7677;41.896;25.004;2023-12-20T13:21:59;8.23;;;6.47;;
15153;SDS011;7677;41.896;25.004;2023-12-20T13:24:26;9.57;;;7.33;;
15153;SDS011;7677;41.896;25.004;2023-12-20T13:26:54;9.27;;;7.23;;
15153;SDS011;7677;41.896;25.004;2023-12-20T13:29:21;7.63;;;6.20;;
15153;SDS011;7677;41.896;25.004;2023-12-20T13:31:49;7.47;;;5.70;;
15153;SDS011;7677;41.896;25.004;2023-12-20T13:34:16;7.87;;;6.20;;
15153;SDS011;7677;41.896;25.004;2023-12-20T13:36:45;7.70;;;6.27;;
15153;SDS011;7677;41.896;25.004;2023-12-20T13:39:13;9.40;;;6.13;;
15153;SDS011;7677;41.896;25.004;2023-12-20T13:41:40;10.40;;;6.80;;
15153;SDS011;7677;41.896;25.004;2023-12-20T13:44:07;8.13;;;6.80;;
15153;SDS011;7677;41.896;25.004;2023-12-20T13:46:34;9.20;;;7.07;;
15153;SDS011;7677;41.896;25.004;2023-12-20T13:49:02;16.03;;;11.43;;
15153;SDS011;7677;41.896;25.004;2023-12-20T13:51:30;13.67;;;8.63;;
15153;SDS011;7677;41.896;25.004;2023-12-20T13:53:59;7.10;;;6.33;;
15153;SDS011;7677;41.896;25.004;2023-12-20T13:56:26;9.80;;;6.73;;
15153;SDS011;7677;41.896;25.004;2023-12-20T13:58:53;8.60;;;6.37;;
15153;SDS011;7677;41.896;25.004;2023-12-20T14:01:20;8.57;;;6.83;;
15153;SDS011;7677;41.896;25.004;2023-12-20T14:03:48;10.83;;;7.67;;
15153;SDS011;7677;41.896;25.004;2023-12-20T14:06:15;7.27;;;6.00;;
15153;SDS011;7677;41.896;25.004;2023-12-20T14:08:43;10.07;;;6.37;;
15153;SDS011;7677;41.896;25.004;2023-12-20T14:11:11;12.83;;;7.27;;
15153;SDS011;7677;41.896;25.004;2023-12-20T14:13:41;14.80;;;6.60;;
15153;SDS011;7677;41.896;25.004;2023-12-20T14:16:08;9.20;;;6.10;;
15153;SDS011;7677;41.896;25.004;2023-12-20T14:18:36;7.33;;;5.57;;
15153;SDS011;7677;41.896;25.004;2023-12-20T14:21:03;6.72;;;5.43;;
15153;SDS011;7677;41.896;25.004;2023-12-20T14:23:31;23.47;;;14.23;;
15153;SDS011;7677;41.896;25.004;2023-12-20T14:25:59;7.67;;;5.40;;
15153;SDS011;7677;41.896;25.004;2023-12-20T14:28:28;5.20;;;3.97;;
15153;SDS011;7677;41.896;25.004;2023-12-20T14:30:56;5.00;;;4.27;;
15153;SDS011;7677;41.896;25.004;2023-12-20T14:33:23;4.30;;;3.90;;
15153;SDS011;7677;41.896;25.004;2023-12-20T14:35:51;4.73;;;3.97;;
15153;SDS011;7677;41.896;25.004;2023-12-20T14:38:18;4.93;;;3.70;;
15153;SDS011;7677;41.896;25.004;2023-12-20T14:40:45;6.00;;;4.37;;
15153;SDS011;7677;41.896;25.004;2023-12-20T14:43:13;9.00;;;4.30;;
15153;SDS011;7677;41.896;25.004;2023-12-20T14:45:43;5.37;;;4.70;;
15153;SDS011;7677;41.896;25.004;2023-12-20T14:48:10;7.00;;;4.80;;
15153;SDS011;7677;41.896;25.004;2023-12-20T14:50:37;9.93;;;5.97;;